createdAt,value
2019-04-21T00:02:19.493Z,98286.00
2019-04-21T00:04:57.942Z,98282.00
2019-04-21T00:07:39.289Z,98273.00
2019-04-21T00:10:12.173Z,98275.00
2019-04-21T00:12:49.452Z,98262.00
2019-04-21T00:15:09.698Z,98264.00
2019-04-21T00:17:35.007Z,98257.00
2019-04-21T00:20:20.472Z,98264.00
2019-04-21T00:22:54.650Z,98257.00
2019-04-21T00:25:32.359Z,98255.00
2019-04-21T00:28:09.192Z,98264.00
2019-04-21T00:30:44.438Z,98259.00
2019-04-21T00:33:05.271Z,98249.00
2019-04-21T00:35:30.818Z,98238.00
2019-04-21T00:38:25.115Z,98233.00
2019-04-21T00:41:00.410Z,98228.00
2019-04-21T00:43:23.373Z,98222.00
2019-04-21T00:45:51.796Z,98226.00
2019-04-21T00:48:34.456Z,98215.00
2019-04-21T00:54:01.306Z,98211.00
2019-04-21T00:56:23.257Z,98224.00
2019-04-21T00:58:59.749Z,98211.00
2019-04-21T01:01:25.271Z,98208.00
2019-04-21T01:04:04.836Z,98228.00
2019-04-21T01:06:38.310Z,98212.00
2019-04-21T01:09:07.640Z,98206.00
2019-04-21T01:11:44.219Z,98211.00
2019-04-21T01:14:20.067Z,98217.00
2019-04-21T01:16:51.681Z,98217.00
2019-04-21T01:19:17.293Z,98209.00
2019-04-21T01:21:32.383Z,98209.00
2019-04-21T01:24:11.781Z,98211.00
2019-04-21T01:26:49.042Z,98211.00
2019-04-21T01:29:34.290Z,98208.00
2019-04-21T01:32:10.468Z,98208.00
2019-04-21T01:34:39.321Z,98204.00
2019-04-21T01:37:04.085Z,98196.00
2019-04-21T01:39:51.347Z,98202.00
2019-04-21T01:42:18.622Z,98197.00
2019-04-21T01:44:46.139Z,98194.00
2019-04-21T01:47:17.475Z,98198.00
2019-04-21T01:49:43.116Z,98189.00
2019-04-21T01:52:38.661Z,98191.00
2019-04-21T01:55:25.002Z,98193.00
2019-04-21T01:58:01.454Z,98191.00
2019-04-21T02:00:54.370Z,98193.00
2019-04-21T02:03:50.169Z,98189.00
2019-04-21T02:06:09.493Z,98179.00
2019-04-21T02:08:31.291Z,98181.00
2019-04-21T02:11:13.879Z,98185.00
2019-04-21T02:13:46.861Z,98197.00
2019-04-21T02:16:16.941Z,98182.00
2019-04-21T02:18:53.009Z,98182.00
2019-04-21T02:21:17.873Z,98187.00
2019-04-21T02:23:59.049Z,98177.00
2019-04-21T02:29:10.702Z,98176.00
2019-04-21T02:31:46.801Z,98180.00
2019-04-21T02:34:17.379Z,98180.00
2019-04-21T02:39:27.973Z,98173.00
2019-04-21T02:44:39.311Z,98177.00
2019-04-21T02:47:07.041Z,98167.00
2019-04-21T02:50:00.327Z,98166.00
2019-04-21T02:52:31.345Z,98174.00
2019-04-21T02:57:17.934Z,98159.00
2019-04-21T02:59:59.613Z,98161.00
2019-04-21T03:02:52.575Z,98170.00
2019-04-21T03:05:41.729Z,98159.00
2019-04-21T03:08:15.420Z,98168.00
2019-04-21T03:13:17.468Z,98152.00
2019-04-21T03:18:19.593Z,98158.00
2019-04-21T03:20:54.328Z,98156.00
2019-04-21T03:23:33.662Z,98157.00
2019-04-21T03:25:52.181Z,98171.00
2019-04-21T03:28:32.422Z,98162.00
2019-04-21T03:31:19.638Z,98140.00
2019-04-21T03:41:10.760Z,98137.00
2019-04-21T03:43:44.654Z,98132.00
2019-04-21T03:46:23.095Z,98134.00
2019-04-21T03:48:58.255Z,98131.00
2019-04-21T03:53:55.798Z,98128.00
2019-04-21T03:56:53.366Z,98127.00
2019-04-21T03:59:11.583Z,98132.00
2019-04-21T04:01:57.771Z,98133.00
2019-04-21T04:04:44.157Z,98131.00
2019-04-21T04:07:50.176Z,98124.00
2019-04-21T04:10:13.949Z,98132.00
2019-04-21T04:12:52.625Z,98142.00
2019-04-21T04:17:54.565Z,98134.00
2019-04-21T04:20:28.037Z,98140.00
2019-04-21T04:23:03.341Z,98138.00
2019-04-21T04:25:33.806Z,98122.00
2019-04-21T04:33:21.074Z,98140.00
2019-04-21T04:36:01.372Z,98143.00
2019-04-21T04:38:36.117Z,98134.00
2019-04-21T04:43:54.461Z,98139.00
2019-04-21T04:46:27.820Z,98143.00
2019-04-21T04:49:04.801Z,98133.00
2019-04-21T04:51:58.569Z,98148.00
2019-04-21T04:53:52.945Z,98133.00
2019-04-21T04:56:38.795Z,98128.00
2019-04-21T05:01:53.263Z,98140.00
2019-04-21T05:04:20.562Z,98129.00
2019-04-21T05:11:50.830Z,98135.00
2019-04-21T05:14:35.454Z,98134.00
2019-04-21T05:19:34.759Z,98139.00
2019-04-21T05:24:28.910Z,98140.00
2019-04-21T05:26:59.546Z,98136.00
2019-04-21T05:29:49.146Z,98131.00
2019-04-21T05:32:29.894Z,98121.00
2019-04-21T05:35:01.598Z,98139.00
2019-04-21T05:37:42.897Z,98151.00
2019-04-21T05:40:20.079Z,98144.00
2019-04-21T05:42:52.954Z,98129.00
2019-04-21T05:45:47.679Z,98136.00
2019-04-21T05:48:17.860Z,98130.00
2019-04-21T05:50:40.017Z,98126.00
2019-04-21T05:53:24.307Z,98121.00
2019-04-21T05:58:30.138Z,98137.00
2019-04-21T06:01:15.048Z,98135.00
2019-04-21T06:06:18.386Z,98126.00
2019-04-21T06:08:54.059Z,98117.00
2019-04-21T06:11:22.200Z,98123.00
2019-04-21T06:13:55.045Z,98122.00
2019-04-21T06:16:21.494Z,98120.00
2019-04-21T06:21:28.057Z,98114.00
2019-04-21T06:23:57.313Z,98111.00
2019-04-21T06:26:50.390Z,98112.00
2019-04-21T06:29:06.931Z,98116.00
2019-04-21T06:34:20.834Z,98105.00
2019-04-21T06:37:05.837Z,98095.00
2019-04-21T06:39:40.515Z,98096.00
2019-04-21T06:42:05.280Z,98109.00
2019-04-21T06:44:38.804Z,98098.00
2019-04-21T06:47:17.689Z,98094.00
2019-04-21T06:49:44.280Z,98102.00
2019-04-21T06:52:44.876Z,98089.00
2019-04-21T06:54:56.053Z,98105.00
2019-04-21T06:57:28.726Z,98096.00
2019-04-21T06:59:57.186Z,98103.00
2019-04-21T07:02:43.876Z,98088.00
2019-04-21T07:05:15.398Z,98093.00
2019-04-21T07:07:41.880Z,98102.00
2019-04-21T07:10:16.955Z,98077.00
2019-04-21T07:12:43.003Z,98089.00
2019-04-21T07:15:19.217Z,98084.00
2019-04-21T07:17:45.644Z,98086.00
2019-04-21T07:20:21.766Z,98091.00
2019-04-21T07:22:59.499Z,98081.00
2019-04-21T07:25:32.691Z,98076.00
2019-04-21T07:28:21.912Z,98071.00
2019-04-21T07:30:37.174Z,98075.00
2019-04-21T07:35:37.313Z,98071.00
2019-04-21T07:38:14.679Z,98074.00
2019-04-21T07:40:42.907Z,98062.00
2019-04-21T07:43:13.137Z,98081.00
2019-04-21T07:45:44.670Z,98063.00
2019-04-21T07:48:36.180Z,98066.00
2019-04-21T07:51:15.419Z,98061.00
2019-04-21T07:53:56.984Z,98064.00
2019-04-21T07:56:09.331Z,98055.00
2019-04-21T07:59:02.115Z,98064.00
2019-04-21T08:01:30.519Z,98055.00
2019-04-21T08:04:16.542Z,98058.00
2019-04-21T08:06:44.969Z,98049.00
2019-04-21T08:09:12.238Z,98051.00
2019-04-21T08:11:37.792Z,98034.00
2019-04-21T08:14:17.760Z,98043.00
2019-04-21T08:16:51.077Z,98028.00
2019-04-21T08:19:25.146Z,98023.00
2019-04-21T08:22:03.702Z,98036.00
2019-04-21T08:24:33.004Z,98025.00
2019-04-21T08:27:04.938Z,98030.00
2019-04-21T08:29:42.992Z,98031.00
2019-04-21T08:32:11.028Z,98013.00
2019-04-21T08:34:44.737Z,98023.00
2019-04-21T08:37:12.368Z,98027.00
2019-04-21T08:39:58.872Z,98015.00
2019-04-21T08:42:18.495Z,98014.00
2019-04-21T08:44:52.993Z,98021.00
2019-04-21T08:47:25.621Z,98014.00
2019-04-21T08:50:00.780Z,97999.00
2019-04-21T08:55:18.377Z,98014.00
2019-04-21T08:58:08.081Z,98009.00
2019-04-21T09:01:02.392Z,98001.00
2019-04-21T09:04:06.064Z,97998.00
2019-04-21T09:06:55.577Z,98002.00
2019-04-21T09:11:49.869Z,98001.00
2019-04-21T09:14:21.113Z,97993.00
2019-04-21T09:16:47.246Z,97991.00
2019-04-21T09:19:35.462Z,97990.00
2019-04-21T09:21:55.171Z,97987.00
2019-04-21T09:24:29.345Z,97976.00
2019-04-21T09:27:04.867Z,97976.00
2019-04-21T09:29:28.715Z,97973.00
2019-04-21T09:31:55.842Z,97966.00
2019-04-21T09:34:35.906Z,97978.00
2019-04-21T09:37:12.682Z,97969.00
2019-04-21T09:39:33.278Z,97965.00
2019-04-21T09:42:06.229Z,97973.00
2019-04-21T09:44:40.896Z,97969.00
2019-04-21T09:47:12.448Z,97972.00
2019-04-21T09:49:45.120Z,97974.00
2019-04-21T09:52:20.969Z,97969.00
2019-04-21T09:55:00.811Z,97959.00
2019-04-21T09:57:34.191Z,97960.00
2019-04-21T10:00:02.138Z,97959.00
2019-04-21T10:02:37.621Z,97956.00
2019-04-21T10:05:02.031Z,97954.00
2019-04-21T10:07:39.972Z,97943.00
2019-04-21T10:10:10.477Z,97951.00
2019-04-21T10:12:43.368Z,97936.00
2019-04-21T10:15:14.891Z,97936.00
2019-04-21T10:17:50.094Z,97938.00
2019-04-21T10:20:22.374Z,97928.00
2019-04-21T10:22:55.278Z,97933.00
2019-04-21T10:25:28.456Z,97936.00
2019-04-21T10:28:01.204Z,97920.00
2019-04-21T10:30:34.761Z,97918.00
2019-04-21T10:33:06.710Z,97922.00
2019-04-21T10:35:39.270Z,97920.00
2019-04-21T10:38:20.324Z,97917.00
2019-04-21T10:40:43.749Z,97923.00
2019-04-21T10:43:17.652Z,97923.00
2019-04-21T10:45:48.828Z,97906.00
2019-04-21T10:48:21.007Z,97904.00
2019-04-21T10:50:52.787Z,97893.00
2019-04-21T10:53:27.198Z,97891.00
2019-04-21T10:56:11.464Z,97899.00
2019-04-21T10:58:34.267Z,97900.00
2019-04-21T11:01:10.745Z,97905.00
2019-04-21T11:04:07.628Z,97892.00
2019-04-21T11:06:38.688Z,97892.00
2019-04-21T11:09:11.147Z,97888.00
2019-04-21T11:11:45.011Z,97894.00
2019-04-21T11:14:15.645Z,97887.00
2019-04-21T11:16:48.035Z,97881.00
2019-04-21T11:19:20.116Z,97880.00
2019-04-21T11:21:52.593Z,97877.00
2019-04-21T11:24:25.010Z,97873.00
2019-04-21T11:26:58.272Z,97869.00
2019-04-21T11:29:30.879Z,97875.00
2019-04-21T11:32:03.025Z,97864.00
2019-04-21T11:34:34.463Z,97871.00
2019-04-21T11:37:08.147Z,97873.00
2019-04-21T11:39:49.345Z,97863.00
2019-04-21T11:42:17.737Z,97847.00
2019-04-21T11:44:49.471Z,97864.00
2019-04-21T11:47:26.420Z,97850.00
2019-04-21T11:49:58.977Z,97841.00
2019-04-21T11:52:31.038Z,97844.00
2019-04-21T11:55:04.624Z,97839.00
2019-04-21T11:57:40.130Z,97848.00
2019-04-21T12:00:09.432Z,97842.00
2019-04-21T12:02:41.552Z,97829.00
2019-04-21T12:05:12.981Z,97832.00
2019-04-21T12:07:45.132Z,97831.00
2019-04-21T12:10:17.659Z,97833.00
2019-04-21T12:12:49.142Z,97817.00
2019-04-21T12:15:20.823Z,97821.00
2019-04-21T12:17:52.228Z,97821.00
2019-04-21T12:20:24.565Z,97818.00
2019-04-21T12:22:56.983Z,97826.00
2019-04-21T12:25:31.362Z,97817.00
2019-04-21T12:28:03.666Z,97807.00
2019-04-21T12:30:35.738Z,97810.00
2019-04-21T12:33:14.017Z,97807.00
2019-04-21T12:35:46.020Z,97803.00
2019-04-21T12:38:29.332Z,97791.00
2019-04-21T12:40:50.740Z,97788.00
2019-04-21T12:43:22.281Z,97786.00
2019-04-21T12:45:53.877Z,97787.00
2019-04-21T12:48:26.205Z,97790.00
2019-04-21T12:50:57.728Z,97781.00
2019-04-21T12:53:29.705Z,97782.00
2019-04-21T12:56:02.159Z,97776.00
2019-04-21T12:58:33.537Z,97766.00
2019-04-21T13:01:05.064Z,97754.00
2019-04-21T13:03:37.530Z,97769.00
2019-04-21T13:06:09.936Z,97762.00
2019-04-21T13:08:49.555Z,97756.00
2019-04-21T13:11:15.035Z,97747.00
2019-04-21T13:13:46.465Z,97747.00
2019-04-21T13:16:19.153Z,97744.00
2019-04-21T13:18:51.229Z,97733.00
2019-04-21T13:21:22.668Z,97741.00
2019-04-21T13:23:54.764Z,97734.00
2019-04-21T13:26:32.787Z,97733.00
2019-04-21T13:29:00.491Z,97719.00
2019-04-21T13:31:32.157Z,97721.00
2019-04-21T13:34:04.157Z,97715.00
2019-04-21T13:36:35.995Z,97709.00
2019-04-21T13:40:04.304Z,97705.00
2019-04-21T13:42:23.440Z,97703.00
2019-04-21T13:44:44.648Z,97705.00
2019-04-21T13:47:16.806Z,97698.00
2019-04-21T13:49:49.559Z,97693.00
2019-04-21T13:52:21.003Z,97690.00
2019-04-21T13:54:53.713Z,97692.00
2019-04-21T13:57:26.336Z,97690.00
2019-04-21T13:59:59.152Z,97684.00
2019-04-21T14:02:31.730Z,97673.00
2019-04-21T14:05:03.483Z,97674.00
2019-04-21T14:07:36.446Z,97669.00
2019-04-21T14:10:10.511Z,97669.00
2019-04-21T14:12:42.532Z,97660.00
2019-04-21T14:15:15.075Z,97663.00
2019-04-21T14:17:46.826Z,97659.00
2019-04-21T14:20:19.580Z,97660.00
2019-04-21T14:22:51.936Z,97658.00
2019-04-21T14:25:23.890Z,97654.00
2019-04-21T14:27:56.482Z,97655.00
2019-04-21T14:30:30.403Z,97654.00
2019-04-21T14:33:02.370Z,97648.00
2019-04-21T14:35:34.797Z,97648.00
2019-04-21T14:38:06.960Z,97643.00
2019-04-21T14:40:38.801Z,97647.00
2019-04-21T14:43:10.293Z,97649.00
2019-04-21T14:45:52.736Z,97640.00
2019-04-21T14:48:43.054Z,97624.00
2019-04-21T14:51:43.239Z,97628.00
2019-04-21T14:54:46.818Z,97635.00
2019-04-21T14:57:18.901Z,97635.00
2019-04-21T14:59:51.115Z,97622.00
2019-04-21T15:02:22.586Z,97627.00
2019-04-21T15:04:55.404Z,97613.00
2019-04-21T15:07:27.576Z,97621.00
2019-04-21T15:10:09.130Z,97621.00
2019-04-21T15:12:32.084Z,97621.00
2019-04-21T15:15:03.484Z,97613.00
2019-04-21T15:17:35.959Z,97615.00
2019-04-21T15:20:11.109Z,97611.00
2019-04-21T15:22:42.035Z,97608.00
2019-04-21T15:25:14.205Z,97593.00
2019-04-21T15:27:46.657Z,97603.00
2019-04-21T15:30:18.698Z,97606.00
2019-04-21T15:32:50.608Z,97602.00
2019-04-21T15:35:22.014Z,97603.00
2019-04-21T15:37:53.733Z,97601.00
2019-04-21T15:40:36.281Z,97600.00
2019-04-21T15:42:58.290Z,97591.00
2019-04-21T15:45:30.630Z,97588.00
2019-04-21T15:48:02.254Z,97588.00
2019-04-21T15:50:33.711Z,97586.00
2019-04-21T15:53:07.764Z,97582.00
2019-04-21T15:56:04.693Z,97580.00
2019-04-21T15:58:46.434Z,97567.00
2019-04-21T16:01:40.823Z,97573.00
2019-04-21T16:04:12.647Z,97567.00
2019-04-21T16:06:43.986Z,97565.00
2019-04-21T16:09:20.037Z,97570.00
2019-04-21T16:11:49.757Z,97565.00
2019-04-21T16:14:22.640Z,97566.00
2019-04-21T16:16:54.149Z,97562.00
2019-04-21T16:19:27.074Z,97565.00
2019-04-21T16:21:59.082Z,97552.00
2019-04-21T16:24:31.657Z,97556.00
2019-04-21T16:27:05.313Z,97552.00
2019-04-21T16:29:37.337Z,97551.00
2019-04-21T16:32:09.161Z,97556.00
2019-04-21T16:34:49.230Z,97555.00
2019-04-21T16:37:13.918Z,97548.00
2019-04-21T16:39:45.417Z,97546.00
2019-04-21T16:42:18.228Z,97551.00
2019-04-21T16:44:50.727Z,97548.00
2019-04-21T16:47:22.047Z,97530.00
2019-04-21T16:49:53.936Z,97542.00
2019-04-21T16:52:40.293Z,97538.00
2019-04-21T16:55:26.785Z,97535.00
2019-04-21T16:58:22.142Z,97533.00
2019-04-21T17:01:04.547Z,97536.00
2019-04-21T17:03:30.762Z,97523.00
2019-04-21T17:06:04.686Z,97531.00
2019-04-21T17:08:36.685Z,97532.00
2019-04-21T17:11:14.078Z,97533.00
2019-04-21T17:13:42.169Z,97520.00
2019-04-21T17:16:42.102Z,97522.00
2019-04-21T17:18:59.538Z,97520.00
2019-04-21T17:21:21.531Z,97512.00
2019-04-21T17:23:54.501Z,97519.00
2019-04-21T17:26:26.926Z,97518.00
2019-04-21T17:29:00.594Z,97525.00
2019-04-21T17:31:32.003Z,97514.00
2019-04-21T17:34:10.285Z,97514.00
2019-04-21T17:36:37.130Z,97515.00
2019-04-21T17:39:10.990Z,97512.00
2019-04-21T17:42:00.357Z,97512.00
2019-04-21T17:44:17.219Z,97505.00
2019-04-21T17:46:54.476Z,97519.00
2019-04-21T17:49:23.029Z,97509.00
2019-04-21T17:52:16.831Z,97513.00
2019-04-21T17:54:53.888Z,97516.00
2019-04-21T17:57:42.605Z,97520.00
2019-04-21T18:00:25.878Z,97514.00
2019-04-21T18:03:07.833Z,97512.00
2019-04-21T18:05:40.984Z,97511.00
2019-04-21T18:08:19.071Z,97503.00
2019-04-21T18:10:45.785Z,97516.00
2019-04-21T18:13:08.785Z,97527.00
2019-04-21T18:15:51.980Z,97530.00
2019-04-21T18:18:10.411Z,97524.00
2019-04-21T18:20:44.699Z,97513.00
2019-04-21T18:23:47.243Z,97518.00
2019-04-21T18:26:24.704Z,97524.00
2019-04-21T18:28:46.554Z,97515.00
2019-04-21T18:31:18.501Z,97520.00
2019-04-21T18:34:27.306Z,97509.00
2019-04-21T18:37:04.807Z,97513.00
2019-04-21T18:40:02.483Z,97518.00
2019-04-21T18:42:45.402Z,97519.00
2019-04-21T18:45:55.387Z,97532.00
2019-04-21T18:48:19.077Z,97526.00
2019-04-21T18:51:12.447Z,97533.00
2019-04-21T18:54:34.088Z,97538.00
2019-04-21T18:56:52.612Z,97526.00
2019-04-21T18:59:22.151Z,97535.00
2019-04-21T19:01:57.794Z,97531.00
2019-04-21T19:04:28.766Z,97530.00
2019-04-21T19:07:06.611Z,97536.00
2019-04-21T19:12:25.331Z,97537.00
2019-04-21T19:14:52.198Z,97533.00
2019-04-21T19:20:08.901Z,97530.00
2019-04-21T19:22:32.853Z,97533.00
2019-04-21T19:25:07.300Z,97531.00
2019-04-21T19:27:40.214Z,97533.00
2019-04-21T19:30:26.901Z,97534.00
2019-04-21T19:32:45.451Z,97537.00
2019-04-21T19:35:02.401Z,97521.00
2019-04-21T19:37:43.193Z,97533.00
2019-04-21T19:40:29.053Z,97533.00
2019-04-21T19:42:55.212Z,97526.00
2019-04-21T19:45:27.978Z,97522.00
2019-04-21T19:48:08.148Z,97532.00
2019-04-21T19:50:40.725Z,97541.00
2019-04-21T19:53:02.986Z,97534.00
2019-04-21T19:55:27.786Z,97538.00
2019-04-21T19:57:59.345Z,97531.00
2019-04-21T20:00:30.874Z,97527.00
2019-04-21T20:03:03.061Z,97524.00
2019-04-21T20:05:43.558Z,97527.00
2019-04-21T20:08:23.365Z,97533.00
2019-04-21T20:10:59.350Z,97524.00
2019-04-21T20:13:48.869Z,97524.00
2019-04-21T20:16:06.921Z,97520.00
2019-04-21T20:18:31.724Z,97504.00
2019-04-21T20:20:54.461Z,97520.00
2019-04-21T20:23:31.871Z,97512.00
2019-04-21T20:26:02.704Z,97509.00
2019-04-21T20:28:45.532Z,97515.00
2019-04-21T20:31:24.939Z,97516.00
2019-04-21T20:33:59.930Z,97514.00
2019-04-21T20:36:37.731Z,97517.00
2019-04-21T20:38:54.981Z,97515.00
2019-04-21T20:41:33.855Z,97501.00
2019-04-21T20:44:11.932Z,97496.00
2019-04-21T20:46:39.818Z,97485.00
2019-04-21T20:49:14.207Z,97490.00
2019-04-21T20:52:01.180Z,97509.00
2019-04-21T20:54:27.089Z,97497.00
2019-04-21T20:56:57.819Z,97486.00
2019-04-21T20:59:27.922Z,97491.00
2019-04-21T21:02:01.659Z,97496.00
2019-04-21T21:04:28.188Z,97488.00
2019-04-21T21:07:20.880Z,97497.00
2019-04-21T21:09:45.013Z,97491.00
2019-04-21T21:12:25.732Z,97492.00
2019-04-21T21:14:42.590Z,97488.00
2019-04-21T21:17:33.979Z,97477.00
2019-04-21T21:19:53.600Z,97482.00
2019-04-21T21:22:22.724Z,97480.00
2019-04-21T21:24:57.119Z,97495.00
2019-04-21T21:27:27.967Z,97461.00
2019-04-21T21:30:05.609Z,97480.00
2019-04-21T21:32:37.462Z,97489.00
2019-04-21T21:35:13.238Z,97478.00
2019-04-21T21:37:49.210Z,97468.00
2019-04-21T21:40:22.887Z,97477.00
2019-04-21T21:42:38.502Z,97480.00
2019-04-21T21:45:15.602Z,97476.00
2019-04-21T21:48:01.223Z,97466.00
2019-04-21T21:50:26.051Z,97483.00
2019-04-21T21:52:59.905Z,97462.00
2019-04-21T21:55:23.715Z,97481.00
2019-04-21T21:58:01.187Z,97470.00
2019-04-21T22:00:30.220Z,97474.00
2019-04-21T22:03:13.642Z,97463.00
2019-04-21T22:05:46.798Z,97464.00
2019-04-21T22:08:10.275Z,97458.00
2019-04-21T22:10:43.184Z,97450.00
2019-04-21T22:13:19.503Z,97437.00
2019-04-21T22:15:55.598Z,97444.00
2019-04-21T22:18:39.149Z,97445.00
2019-04-21T22:21:07.704Z,97444.00
2019-04-21T22:23:39.940Z,97447.00
2019-04-21T22:26:01.157Z,97441.00
2019-04-21T22:28:33.797Z,97457.00
2019-04-21T22:31:13.152Z,97448.00
2019-04-21T22:33:47.935Z,97446.00
2019-04-21T22:36:26.489Z,97454.00
2019-04-21T22:39:05.213Z,97460.00
2019-04-21T22:41:26.333Z,97451.00
2019-04-21T22:43:53.802Z,97452.00
2019-04-21T22:46:24.597Z,97454.00
2019-04-21T22:48:59.716Z,97452.00
2019-04-21T22:51:37.119Z,97443.00
2019-04-21T22:54:02.046Z,97454.00
2019-04-21T22:56:36.104Z,97464.00
2019-04-21T22:59:14.690Z,97436.00
2019-04-21T23:01:46.646Z,97447.00
2019-04-21T23:04:15.859Z,97454.00
2019-04-21T23:06:48.761Z,97446.00
2019-04-21T23:09:20.304Z,97438.00
2019-04-21T23:11:55.807Z,97439.00
2019-04-21T23:14:25.865Z,97438.00
2019-04-21T23:17:22.958Z,97440.00
2019-04-21T23:19:44.893Z,97436.00
2019-04-21T23:22:21.477Z,97452.00
2019-04-21T23:24:59.301Z,97436.00
2019-04-21T23:27:23.822Z,97420.00
2019-04-21T23:30:08.172Z,97422.00
2019-04-21T23:32:30.578Z,97415.00
2019-04-21T23:34:51.102Z,97429.00
2019-04-21T23:37:25.735Z,97432.00
2019-04-21T23:40:02.723Z,97425.00
2019-04-21T23:42:36.160Z,97427.00
2019-04-21T23:45:04.687Z,97438.00
2019-04-21T23:47:48.864Z,97425.00
2019-04-21T23:50:23.535Z,97413.00
2019-04-21T23:52:43.605Z,97419.00
2019-04-21T23:55:17.037Z,97419.00
2019-04-21T23:57:50.103Z,97409.00
